createdAt,value
2019-01-11T00:02:27.734Z,93417.73
2019-01-11T00:04:56.056Z,93422.09
2019-01-11T00:07:24.337Z,93433.89
2019-01-11T00:09:52.618Z,93436.01
2019-01-11T00:12:20.939Z,93441.62
2019-01-11T00:14:49.229Z,93448.36
2019-01-11T00:17:17.502Z,93442.45
2019-01-11T00:19:45.820Z,93456.55
2019-01-11T00:22:14.166Z,93462.59
2019-01-11T00:24:42.443Z,93456.34
2019-01-11T00:27:11.134Z,93475.66
2019-01-11T00:29:39.418Z,93482.27
2019-01-11T00:32:07.696Z,93493.60
2019-01-11T00:34:36.002Z,93496.12
2019-01-11T00:37:04.488Z,93501.84
2019-01-11T00:39:32.782Z,93507.80
2019-01-11T00:42:01.100Z,93508.28
2019-01-11T00:44:29.375Z,93512.02
2019-01-11T00:46:57.655Z,93526.11
2019-01-11T00:49:25.962Z,93530.58
2019-01-11T00:51:54.243Z,93532.26
2019-01-11T00:54:22.527Z,93538.69
2019-01-11T00:56:50.938Z,93544.43
2019-01-11T00:59:19.218Z,93547.52
2019-01-11T01:01:47.505Z,93545.20
2019-01-11T01:04:15.832Z,93548.24
2019-01-11T01:06:44.114Z,93550.41
2019-01-11T01:09:12.387Z,93554.59
2019-01-11T01:11:40.727Z,93552.97
2019-01-11T01:14:11.130Z,93565.88
2019-01-11T01:16:39.411Z,93561.61
2019-01-11T01:19:07.795Z,93571.83
2019-01-11T01:21:36.073Z,93575.13
2019-01-11T01:24:04.347Z,93576.42
2019-01-11T01:26:32.658Z,93582.23
2019-01-11T01:29:00.941Z,93582.31
2019-01-11T01:31:30.243Z,93586.59
2019-01-11T01:33:58.571Z,93593.93
2019-01-11T01:36:26.850Z,93580.36
2019-01-11T01:38:55.115Z,93581.14
2019-01-11T01:41:23.501Z,93588.95
2019-01-11T01:43:51.766Z,93592.61
2019-01-11T01:46:20.050Z,93583.93
2019-01-11T01:48:48.373Z,93590.52
2019-01-11T01:51:16.719Z,93592.14
2019-01-11T01:53:44.997Z,93596.59
2019-01-11T01:56:13.306Z,93590.55
2019-01-11T01:58:41.585Z,93590.26
2019-01-11T02:01:10.004Z,93594.09
2019-01-11T02:03:38.332Z,93593.54
2019-01-11T02:06:06.610Z,93589.81
2019-01-11T02:08:34.890Z,93592.77
2019-01-11T02:11:03.215Z,93596.69
2019-01-11T02:13:31.496Z,93592.89
2019-01-11T02:15:59.781Z,93600.09
2019-01-11T02:18:28.102Z,93603.59
2019-01-11T02:20:56.455Z,93596.55
2019-01-11T02:23:24.755Z,93607.70
2019-01-11T02:25:53.072Z,93605.84
2019-01-11T02:28:21.349Z,93608.09
2019-01-11T02:30:49.697Z,93607.96
2019-01-11T02:33:24.906Z,93607.90
2019-01-11T02:35:48.029Z,93609.62
2019-01-11T02:38:16.349Z,93602.86
2019-01-11T02:40:44.804Z,93610.21
2019-01-11T02:43:13.092Z,93607.54
2019-01-11T02:45:41.444Z,93607.34
2019-01-11T02:48:09.756Z,93605.95
2019-01-11T02:50:38.099Z,93609.58
2019-01-11T02:53:06.388Z,93610.62
2019-01-11T02:55:34.775Z,93610.93
2019-01-11T02:58:03.055Z,93604.88
2019-01-11T03:00:31.409Z,93609.92
2019-01-11T03:02:59.734Z,93613.34
2019-01-11T03:05:28.077Z,93626.50
2019-01-11T03:07:56.356Z,93634.48
2019-01-11T03:10:24.741Z,93631.39
2019-01-11T03:12:53.026Z,93634.42
2019-01-11T03:15:21.374Z,93644.65
2019-01-11T03:17:49.681Z,93649.83
2019-01-11T03:20:18.414Z,93648.99
2019-01-11T03:22:46.759Z,93653.43
2019-01-11T03:25:16.092Z,93656.88
2019-01-11T03:27:44.385Z,93654.16
2019-01-11T03:30:15.123Z,93650.63
2019-01-11T03:32:43.641Z,93654.61
2019-01-11T03:35:15.579Z,93664.09
2019-01-11T03:37:44.915Z,93666.22
2019-01-11T03:40:15.382Z,93670.18
2019-01-11T03:42:43.663Z,93664.61
2019-01-11T03:45:14.175Z,93682.15
2019-01-11T03:47:42.567Z,93683.06
2019-01-11T03:50:13.553Z,93678.59
2019-01-11T03:52:41.837Z,93681.72
2019-01-11T03:55:12.198Z,93687.34
2019-01-11T03:57:40.477Z,93688.55
2019-01-11T04:00:14.265Z,93689.31
2019-01-11T04:02:42.588Z,93697.41
2019-01-11T04:05:10.878Z,93706.25
2019-01-11T04:07:39.220Z,93712.47
2019-01-11T04:10:16.062Z,93717.88
2019-01-11T04:12:44.417Z,93714.77
2019-01-11T04:15:14.717Z,93722.30
2019-01-11T04:17:43.028Z,93727.63
2019-01-11T04:20:16.676Z,93729.94
2019-01-11T04:22:46.587Z,93729.59
2019-01-11T04:25:19.365Z,93729.60
2019-01-11T04:27:47.728Z,93724.95
2019-01-11T04:30:16.807Z,93740.14
2019-01-11T04:32:45.119Z,93733.84
2019-01-11T04:35:13.395Z,93737.75
2019-01-11T04:37:41.751Z,93744.09
2019-01-11T04:40:12.703Z,93742.95
2019-01-11T04:42:41.047Z,93742.98
2019-01-11T04:45:12.536Z,93743.47
2019-01-11T04:47:40.852Z,93753.71
2019-01-11T04:50:11.791Z,93745.09
2019-01-11T04:52:40.140Z,93751.30
2019-01-11T04:55:08.466Z,93749.10
2019-01-11T04:57:36.755Z,93768.55
2019-01-11T05:00:19.978Z,93772.48
2019-01-11T05:02:48.257Z,93775.88
2019-01-11T05:05:16.780Z,93787.38
2019-01-11T05:07:45.107Z,93788.39
2019-01-11T05:10:15.522Z,93785.50
2019-01-11T05:12:43.791Z,93786.23
2019-01-11T05:15:12.252Z,93792.74
2019-01-11T05:17:40.526Z,93786.82
2019-01-11T05:20:16.745Z,93807.37
2019-01-11T05:22:43.428Z,93803.27
2019-01-11T05:25:11.704Z,93806.02
2019-01-11T05:27:39.986Z,93798.47
2019-01-11T05:30:11.400Z,93805.31
2019-01-11T05:32:39.745Z,93805.94
2019-01-11T05:35:08.170Z,93803.45
2019-01-11T05:37:37.661Z,93804.17
2019-01-11T05:40:11.592Z,93802.48
2019-01-11T05:42:39.975Z,93813.15
2019-01-11T05:45:08.396Z,93816.77
2019-01-11T05:47:36.681Z,93824.20
2019-01-11T05:50:08.442Z,93819.64
2019-01-11T05:52:36.816Z,93823.23
2019-01-11T05:55:07.626Z,93818.64
2019-01-11T05:57:36.924Z,93818.09
2019-01-11T06:00:06.297Z,93830.16
2019-01-11T06:02:34.557Z,93829.61
2019-01-11T06:05:02.960Z,93827.34
2019-01-11T06:07:31.316Z,93829.16
2019-01-11T06:09:59.653Z,93845.04
2019-01-11T06:12:28.109Z,93836.95
2019-01-11T06:14:56.395Z,93841.23
2019-01-11T06:17:24.755Z,93847.47
2019-01-11T06:19:53.086Z,93847.23
2019-01-11T06:22:21.443Z,93843.91
2019-01-11T06:24:49.724Z,93847.51
2019-01-11T06:27:18.127Z,93856.34
2019-01-11T06:29:46.407Z,93854.38
2019-01-11T06:32:14.687Z,93856.14
2019-01-11T06:34:43.007Z,93855.59
2019-01-11T06:37:11.288Z,93859.80
2019-01-11T06:39:39.562Z,93871.91
2019-01-11T06:42:09.521Z,93865.84
2019-01-11T06:44:39.010Z,93875.06
2019-01-11T06:47:07.434Z,93879.66
2019-01-11T06:49:35.765Z,93875.06
2019-01-11T06:52:04.045Z,93876.98
2019-01-11T06:54:32.350Z,93877.86
2019-01-11T06:57:00.667Z,93885.30
2019-01-11T06:59:28.949Z,93891.36
2019-01-11T07:01:57.293Z,93887.60
2019-01-11T07:04:25.610Z,93896.53
2019-01-11T07:06:53.955Z,93904.33
2019-01-11T07:09:22.232Z,93898.77
2019-01-11T07:11:50.548Z,93906.03
2019-01-11T07:14:18.898Z,93911.67
2019-01-11T07:16:47.176Z,93911.64
2019-01-11T07:19:15.490Z,93895.77
2019-01-11T07:21:43.772Z,93903.77
2019-01-11T07:24:12.119Z,93903.42
2019-01-11T07:26:40.507Z,93897.56
2019-01-11T07:29:08.781Z,93901.42
2019-01-11T07:31:37.121Z,93904.47
2019-01-11T07:34:05.524Z,93909.23
2019-01-11T07:36:35.174Z,93911.42
2019-01-11T07:39:06.792Z,93919.85
2019-01-11T07:41:35.105Z,93901.88
2019-01-11T07:44:03.382Z,93906.77
2019-01-11T07:46:31.658Z,93909.30
2019-01-11T07:48:59.975Z,93911.66
2019-01-11T07:51:28.324Z,93913.78
2019-01-11T07:53:56.604Z,93912.63
2019-01-11T07:56:24.916Z,93915.14
2019-01-11T07:58:53.191Z,93915.70
2019-01-11T08:01:21.481Z,93927.89
2019-01-11T08:03:49.800Z,93933.13
2019-01-11T08:06:18.559Z,93936.59
2019-01-11T08:08:46.835Z,93931.42
2019-01-11T08:11:15.141Z,93943.28
2019-01-11T08:13:43.438Z,93940.83
2019-01-11T08:16:11.710Z,93950.08
2019-01-11T08:18:40.045Z,93954.94
2019-01-11T08:21:08.320Z,93959.44
2019-01-11T08:23:36.594Z,93964.34
2019-01-11T08:26:04.899Z,93973.67
2019-01-11T08:28:34.254Z,93974.09
2019-01-11T08:31:02.548Z,93976.55
2019-01-11T08:33:32.633Z,93969.62
2019-01-11T08:36:01.160Z,93975.78
2019-01-11T08:38:29.439Z,93974.39
2019-01-11T08:40:57.752Z,93972.85
2019-01-11T08:43:26.033Z,93984.70
2019-01-11T08:45:54.301Z,93985.73
2019-01-11T08:48:23.198Z,93984.20
2019-01-11T08:50:51.479Z,93985.23
2019-01-11T08:53:19.905Z,93992.85
2019-01-11T08:55:48.298Z,94001.25
2019-01-11T08:58:16.649Z,94007.91
2019-01-11T09:00:45.294Z,94009.71
2019-01-11T09:03:13.678Z,94011.31
2019-01-11T09:05:41.957Z,94012.48
2019-01-11T09:08:10.313Z,94019.48
2019-01-11T09:10:38.645Z,94010.80
2019-01-11T09:13:06.926Z,94011.95
2019-01-11T09:15:35.209Z,94008.47
2019-01-11T09:18:16.031Z,94005.19
2019-01-11T09:20:44.320Z,94006.49
2019-01-11T09:23:12.674Z,94011.63
2019-01-11T09:25:40.988Z,94005.54
2019-01-11T09:28:09.263Z,93994.03
2019-01-11T09:30:37.617Z,93996.55
2019-01-11T09:33:05.936Z,93996.59
2019-01-11T09:35:34.215Z,93998.62
2019-01-11T09:38:02.490Z,94001.73
2019-01-11T09:40:30.832Z,93996.16
2019-01-11T09:42:59.124Z,94003.27
2019-01-11T09:45:27.580Z,94004.80
2019-01-11T09:47:55.972Z,94004.95
2019-01-11T09:50:24.256Z,94005.03
2019-01-11T09:52:52.538Z,94009.64
2019-01-11T09:55:20.860Z,93994.91
2019-01-11T09:57:49.144Z,93997.73
2019-01-11T10:00:20.262Z,94008.30
2019-01-11T10:02:50.214Z,94001.84
2019-01-11T10:05:18.559Z,93998.14
2019-01-11T10:07:46.840Z,93993.98
2019-01-11T10:10:15.294Z,93994.80
2019-01-11T10:12:43.668Z,93997.19
2019-01-11T10:15:14.532Z,94003.61
2019-01-11T10:17:43.038Z,94008.33
2019-01-11T10:20:12.455Z,94003.00
2019-01-11T10:22:41.110Z,94003.42
2019-01-11T10:25:10.480Z,94012.16
2019-01-11T10:27:38.776Z,94005.80
2019-01-11T10:30:13.122Z,94008.64
2019-01-11T10:32:41.435Z,94020.09
2019-01-11T10:35:11.243Z,94007.51
2019-01-11T10:37:39.533Z,94011.33
2019-01-11T10:40:13.651Z,94008.20
2019-01-11T10:42:42.007Z,94004.17
2019-01-11T10:45:13.626Z,94008.73
2019-01-11T10:47:42.020Z,94004.88
2019-01-11T10:50:13.439Z,94000.70
2019-01-11T10:52:41.810Z,94009.39
2019-01-11T10:55:12.254Z,94008.34
2019-01-11T10:57:40.598Z,94006.02
2019-01-11T11:00:17.591Z,94012.06
2019-01-11T11:02:45.879Z,94014.72
2019-01-11T11:05:14.231Z,94010.80
2019-01-11T11:07:42.563Z,94011.18
2019-01-11T11:10:12.080Z,94012.52
2019-01-11T11:12:40.358Z,94008.50
2019-01-11T11:15:11.121Z,94019.44
2019-01-11T11:17:39.485Z,94015.59
2019-01-11T11:20:10.681Z,94013.11
2019-01-11T11:22:39.147Z,94025.52
2019-01-11T11:25:10.271Z,94025.79
2019-01-11T11:27:38.550Z,94023.95
2019-01-11T11:30:09.781Z,94029.58
2019-01-11T11:32:45.117Z,94029.72
2019-01-11T11:35:13.477Z,94035.59
2019-01-11T11:37:41.875Z,94039.22
2019-01-11T11:40:10.214Z,94033.92
2019-01-11T11:42:38.572Z,94038.45
2019-01-11T11:45:07.335Z,94041.34
2019-01-11T11:47:35.691Z,94046.36
2019-01-11T11:50:06.476Z,94049.06
2019-01-11T11:52:34.865Z,94045.70
2019-01-11T11:55:03.427Z,94049.63
2019-01-11T11:57:31.716Z,94044.34
2019-01-11T12:00:00.106Z,94053.60
2019-01-11T12:02:28.564Z,94054.88
2019-01-11T12:04:56.841Z,94059.03
2019-01-11T12:07:25.389Z,94057.20
2019-01-11T12:09:53.815Z,94055.50
2019-01-11T12:12:22.223Z,94063.64
2019-01-11T12:14:50.611Z,94056.47
2019-01-11T12:17:19.093Z,94064.83
2019-01-11T12:19:47.449Z,94068.73
2019-01-11T12:22:15.989Z,94070.77
2019-01-11T12:24:44.484Z,94073.95
2019-01-11T12:27:12.987Z,94076.54
2019-01-11T12:29:41.310Z,94077.44
2019-01-11T12:32:09.669Z,94086.25
2019-01-11T12:34:38.163Z,94083.42
2019-01-11T12:37:06.703Z,94085.13
2019-01-11T12:39:35.191Z,94076.25
2019-01-11T12:42:03.680Z,94073.88
2019-01-11T12:44:32.070Z,94072.86
2019-01-11T12:47:00.562Z,94073.55
2019-01-11T12:49:29.052Z,94075.66
2019-01-11T12:51:57.601Z,94090.71
2019-01-11T12:54:25.895Z,94087.98
2019-01-11T12:56:54.390Z,94090.48
2019-01-11T12:59:22.719Z,94085.33
2019-01-11T13:01:51.201Z,94084.11
2019-01-11T13:04:19.472Z,94088.41
2019-01-11T13:06:47.993Z,94093.56
2019-01-11T13:09:16.336Z,94087.53
2019-01-11T13:11:44.835Z,94096.41
2019-01-11T13:14:13.219Z,94096.55
2019-01-11T13:16:41.709Z,94097.34
2019-01-11T13:19:09.982Z,94098.47
2019-01-11T13:21:38.532Z,94093.80
2019-01-11T13:24:06.881Z,94098.45
2019-01-11T13:26:37.937Z,94104.44
2019-01-11T13:29:06.384Z,94114.08
2019-01-11T13:31:34.873Z,94107.40
2019-01-11T13:34:03.152Z,94123.14
2019-01-11T13:36:31.750Z,94125.40
2019-01-11T13:39:00.241Z,94126.50
2019-01-11T13:41:28.743Z,94126.63
2019-01-11T13:43:57.255Z,94130.17
2019-01-11T13:46:25.618Z,94127.39
2019-01-11T13:48:54.101Z,94134.28
2019-01-11T13:51:22.630Z,94136.30
2019-01-11T13:53:50.909Z,94131.34
2019-01-11T13:56:19.398Z,94132.45
2019-01-11T13:58:47.927Z,94133.05
2019-01-11T14:01:16.345Z,94133.16
2019-01-11T14:03:44.855Z,94129.44
2019-01-11T14:06:13.378Z,94132.53
2019-01-11T14:08:41.860Z,94126.69
2019-01-11T14:11:10.270Z,94138.50
2019-01-11T14:13:38.799Z,94131.66
2019-01-11T14:16:07.279Z,94133.84
2019-01-11T14:18:35.761Z,94145.91
2019-01-11T14:21:04.297Z,94144.02
2019-01-11T14:23:32.800Z,94142.37
2019-01-11T14:26:01.276Z,94142.47
2019-01-11T14:28:29.803Z,94147.72
2019-01-11T14:30:58.301Z,94156.66
2019-01-11T14:33:26.782Z,94152.66
2019-01-11T14:35:55.112Z,94151.41
2019-01-11T14:38:23.616Z,94157.05
2019-01-11T14:40:52.096Z,94146.50
2019-01-11T14:43:20.631Z,94151.62
2019-01-11T14:45:49.110Z,94150.56
2019-01-11T14:48:17.604Z,94151.06
2019-01-11T14:50:46.133Z,94150.80
2019-01-11T14:53:14.635Z,94146.71
2019-01-11T14:55:43.144Z,94150.52
2019-01-11T14:58:11.658Z,94152.27
2019-01-11T15:00:40.147Z,94155.81
2019-01-11T15:03:08.637Z,94159.69
2019-01-11T15:05:37.155Z,94160.48
2019-01-11T15:08:05.648Z,94160.71
2019-01-11T15:10:34.139Z,94159.84
2019-01-11T15:13:02.659Z,94162.39
2019-01-11T15:15:31.145Z,94166.94
2019-01-11T15:17:59.633Z,94168.08
2019-01-11T15:20:28.176Z,94164.20
2019-01-11T15:22:56.659Z,94173.47
2019-01-11T15:25:25.154Z,94170.44
2019-01-11T15:27:53.703Z,94184.34
2019-01-11T15:30:22.195Z,94184.75
2019-01-11T15:32:50.696Z,94183.76
2019-01-11T15:35:19.227Z,94183.95
2019-01-11T15:37:47.718Z,94183.61
2019-01-11T15:40:24.104Z,94190.75
2019-01-11T15:42:52.596Z,94189.17
2019-01-11T15:45:21.086Z,94189.86
2019-01-11T15:47:49.609Z,94193.16
2019-01-11T15:50:50.973Z,94194.06
2019-01-11T15:53:19.633Z,94199.91
2019-01-11T15:55:48.426Z,94202.77
2019-01-11T15:58:16.917Z,94207.41
2019-01-11T16:00:47.570Z,94204.50
2019-01-11T16:03:16.061Z,94207.48
2019-01-11T16:05:44.546Z,94204.75
2019-01-11T16:08:13.065Z,94212.14
2019-01-11T16:11:03.717Z,94212.08
2019-01-11T16:13:32.432Z,94218.45
2019-01-11T16:16:02.329Z,94216.97
2019-01-11T16:18:30.838Z,94215.54
2019-01-11T16:20:59.371Z,94215.64
2019-01-11T16:23:27.925Z,94211.11
2019-01-11T16:25:56.427Z,94222.41
2019-01-11T16:28:24.956Z,94219.45
2019-01-11T16:30:53.431Z,94215.67
2019-01-11T16:33:21.941Z,94224.22
2019-01-11T16:35:50.467Z,94222.13
2019-01-11T16:38:18.956Z,94213.41
2019-01-11T16:40:47.453Z,94216.89
2019-01-11T16:43:15.975Z,94219.01
2019-01-11T16:45:44.463Z,94219.92
2019-01-11T16:48:12.959Z,94228.50
2019-01-11T17:09:57.711Z,94231.44
2019-01-11T17:12:26.196Z,94231.52
2019-01-11T17:14:54.699Z,94240.69
2019-01-11T17:17:23.214Z,94228.19
2019-01-11T17:19:51.714Z,94229.00
2019-01-11T17:22:20.198Z,94245.16
2019-01-11T17:24:48.777Z,94238.00
2019-01-11T17:27:17.278Z,94244.72
2019-01-11T17:29:47.269Z,94243.52
2019-01-11T17:32:15.976Z,94242.58
2019-01-11T17:34:44.491Z,94244.89
2019-01-11T17:37:12.983Z,94250.92
2019-01-11T17:39:41.521Z,94246.69
2019-01-11T17:42:10.012Z,94242.80
2019-01-11T17:44:38.500Z,94247.97
2019-01-11T17:47:07.035Z,94248.33
2019-01-11T17:49:35.522Z,94244.10
2019-01-11T17:52:04.016Z,94250.91
2019-01-11T17:54:32.541Z,94252.23
2019-01-11T17:57:01.023Z,94251.63
2019-01-11T17:59:29.524Z,94243.12
2019-01-11T18:01:58.055Z,94251.48
2019-01-11T18:04:26.555Z,94250.16
2019-01-11T18:06:55.043Z,94251.58
2019-01-11T18:09:23.713Z,94258.49
2019-01-11T18:11:52.216Z,94252.82
2019-01-11T18:14:20.715Z,94254.77
2019-01-11T18:16:49.246Z,94253.51
2019-01-11T18:19:17.746Z,94254.80
2019-01-11T18:21:47.810Z,94247.04
2019-01-11T18:24:16.334Z,94253.14
2019-01-11T18:26:44.829Z,94255.31
2019-01-11T18:29:13.303Z,94257.75
2019-01-11T18:31:41.855Z,94264.93
2019-01-11T18:34:10.341Z,94271.91
2019-01-11T18:36:38.846Z,94270.61
2019-01-11T18:39:07.775Z,94271.91
2019-01-11T18:41:36.267Z,94271.91
2019-01-11T18:44:04.870Z,94271.19
2019-01-11T18:46:33.394Z,94276.59
2019-01-11T18:49:01.885Z,94278.80
2019-01-11T18:51:30.431Z,94276.37
2019-01-11T18:53:58.959Z,94270.94
2019-01-11T18:56:27.456Z,94268.05
2019-01-11T18:58:55.965Z,94262.94
2019-01-11T19:01:24.502Z,94260.33
2019-01-11T19:03:53.196Z,94264.70
2019-01-11T19:06:21.689Z,94263.28
2019-01-11T19:08:50.219Z,94264.25
2019-01-11T19:11:18.721Z,94265.39
2019-01-11T19:13:47.207Z,94269.09
2019-01-11T19:16:15.746Z,94271.79
2019-01-11T19:18:44.232Z,94267.09
2019-01-11T19:21:12.720Z,94272.67
2019-01-11T19:23:41.273Z,94267.67
2019-01-11T19:26:09.772Z,94265.66
2019-01-11T19:28:38.272Z,94270.64
2019-01-11T19:31:06.812Z,94279.00
2019-01-11T19:33:35.314Z,94272.23
2019-01-11T19:36:03.904Z,94274.21
2019-01-11T19:38:32.418Z,94274.06
2019-01-11T19:41:02.461Z,94278.33
2019-01-11T19:43:30.944Z,94284.04
2019-01-11T19:45:59.477Z,94279.71
2019-01-11T19:48:27.970Z,94282.27
2019-01-11T19:50:56.438Z,94276.06
2019-01-11T19:53:27.930Z,94283.08
2019-01-11T19:55:58.947Z,94275.86
2019-01-11T19:58:26.637Z,94277.30
2019-01-11T20:00:55.204Z,94266.09
2019-01-11T20:03:23.750Z,94272.05
2019-01-11T20:05:52.240Z,94268.81
2019-01-11T20:08:20.789Z,94273.56
2019-01-11T20:10:49.287Z,94269.45
2019-01-11T20:13:17.854Z,94270.88
2019-01-11T20:15:46.411Z,94265.60
2019-01-11T20:18:14.905Z,94270.77
2019-01-11T20:20:43.389Z,94271.24
2019-01-11T20:23:11.916Z,94271.04
2019-01-11T20:25:40.417Z,94270.81
2019-01-11T20:28:10.484Z,94265.59
2019-01-11T20:30:39.025Z,94261.67
2019-01-11T20:33:07.520Z,94262.53
2019-01-11T20:35:36.004Z,94259.08
2019-01-11T20:38:04.517Z,94259.68
2019-01-11T20:40:35.982Z,94248.44
2019-01-11T20:43:04.477Z,94254.34
2019-01-11T20:45:33.018Z,94251.22
2019-01-11T20:48:01.555Z,94244.20
2019-01-11T20:50:30.068Z,94249.76
2019-01-11T20:52:58.619Z,94248.17
2019-01-11T20:55:27.108Z,94249.95
2019-01-11T20:57:57.154Z,94248.55
2019-01-11T21:00:27.981Z,94252.36
2019-01-11T21:02:56.484Z,94257.95
2019-01-11T21:05:25.387Z,94260.48
2019-01-11T21:07:53.910Z,94264.54
2019-01-11T21:10:22.511Z,94257.30
2019-01-11T21:12:51.009Z,94259.25
2019-01-11T21:15:21.896Z,94250.77
2019-01-11T21:17:50.495Z,94256.13
2019-01-11T21:20:21.798Z,94258.62
2019-01-11T21:22:50.315Z,94252.33
2019-01-11T21:25:19.900Z,94261.14
2019-01-11T21:27:48.392Z,94251.98
2019-01-11T21:30:19.229Z,94247.12
2019-01-11T21:32:47.726Z,94243.56
2019-01-11T21:35:16.216Z,94233.45
2019-01-11T21:37:44.751Z,94229.77
2019-01-11T21:40:15.744Z,94236.46
2019-01-11T21:42:44.238Z,94225.06
2019-01-11T21:45:12.861Z,94221.45
2019-01-11T21:47:41.378Z,94230.30
2019-01-11T21:50:14.923Z,94226.38
2019-01-11T21:52:43.470Z,94221.86
2019-01-11T21:55:12.968Z,94219.31
2019-01-11T21:57:41.446Z,94219.65
2019-01-11T22:00:19.224Z,94224.61
2019-01-11T22:02:47.722Z,94221.47
2019-01-11T22:05:16.221Z,94224.56
2019-01-11T22:07:44.610Z,94227.86
2019-01-11T22:10:15.012Z,94229.15
2019-01-11T22:12:43.503Z,94230.80
2019-01-11T22:15:14.640Z,94234.80
2019-01-11T22:17:43.001Z,94224.05
2019-01-11T22:20:14.247Z,94221.58
2019-01-11T22:22:42.776Z,94222.98
2019-01-11T22:25:12.665Z,94215.16
2019-01-11T22:27:41.155Z,94220.38
2019-01-11T22:30:14.951Z,94224.83
2019-01-11T22:32:43.386Z,94232.07
2019-01-11T22:35:11.870Z,94241.48
2019-01-11T22:37:40.395Z,94235.50
2019-01-11T22:40:11.939Z,94247.83
2019-01-11T22:42:40.212Z,94250.72
2019-01-11T22:45:11.855Z,94252.55
2019-01-11T22:47:40.132Z,94244.36
2019-01-11T22:50:11.751Z,94239.16
2019-01-11T22:52:40.123Z,94229.16
2019-01-11T22:55:10.448Z,94231.36
2019-01-11T22:57:38.728Z,94238.75
2019-01-11T23:00:20.459Z,94237.42
2019-01-11T23:02:49.051Z,94234.84
2019-01-11T23:05:17.321Z,94237.97
2019-01-11T23:07:45.817Z,94241.64
2019-01-11T23:10:19.874Z,94239.02
2019-01-11T23:12:51.100Z,94234.05
2019-01-11T23:15:19.553Z,94226.44
2019-01-11T23:17:50.951Z,94222.25
2019-01-11T23:20:19.266Z,94230.17
2019-01-11T23:22:47.546Z,94234.34
2019-01-11T23:25:15.821Z,94224.72
2019-01-11T23:27:44.131Z,94224.21
2019-01-11T23:30:15.230Z,94224.03
2019-01-11T23:32:43.503Z,94220.98
2019-01-11T23:35:11.820Z,94218.77
2019-01-11T23:37:40.123Z,94215.38
2019-01-11T23:40:11.040Z,94211.06
2019-01-11T23:42:39.427Z,94189.34
2019-01-11T23:45:10.447Z,94194.31
2019-01-11T23:47:38.718Z,94195.39
2019-01-11T23:50:10.281Z,94185.97
2019-01-11T23:52:38.556Z,94203.55
2019-01-11T23:55:08.280Z,94207.31
2019-01-11T23:57:36.593Z,94212.22
